< < Back
Terminal Aerodrome Forecast


Current Version              Previous Versions:   1  2  3  4  5  6  7  8  9  

Terminal Aerodrome Forecast

780
FTUS44 KBMX 292003 AAB
TAFTCL
TAF AMD
KTCL 292003Z 2920/3018 36005KT P6SM SCT050
     FM300200 01003KT P6SM SKC=

Latest METAR

893
SAUS70 KWBC 301400 RRL
MTRTCL
METAR KTCL 301353Z 05005KT 10SM CLR 26/17 A3001 RMK AO2 SLP160
T02560172


USA.gov is the U.S. government's official web portal to all federal, state and local government web resources and services.